EDMA 210120Z AUTO 10003KT 9999 OVC048/// 09/09 Q1023 EDMA 210050Z AUTO 13001KT 9999 SCT040/// OVC048/// 09/09 Q1024 EDMA 210020Z AUTO VRB01KT 9999 BKN045/// BKN054/// 09/08 Q1024 EDMA 202350Z AUTO 02003KT 9999 FEW035/// OVC054/// 10/09 Q1023 EDMA 202320Z AUTO 36002KT 9999 FEW034/// OVC051/// 10/09 Q1023 EDMA 202250Z AUTO 35003KT 320V110 9999 FEW033/// OVC052/// 11/08 Q1023 EDMA 202220Z AUTO 12004KT 090V150 9999 OVC048/// 11/09 Q1023 EDMA 202150Z AUTO 11002KT 9999 FEW032/// OVC055/// 10/09 Q1023 EDMA 202120Z AUTO 05002KT 9999 SCT032/// OVC059/// 09/09 Q1023 EDMA 202050Z AUTO 01002KT 9999 BKN059/// 09/09 Q1023 EDMA 202020Z AUTO 05002KT 9999 BKN060/// 10/09 Q1022 EDMA 201950Z AUTO 08002KT 9999 OVC060/// 10/09 Q1022 EDMA 201920Z AUTO 08002KT 9999 OVC059/// 10/09 Q1022 EDMA 201850Z VRB01KT CAVOK 10/09 Q1022 EDMA 201820Z VRB02KT CAVOK 10/09 Q1021 EDMA 201750Z 06002KT CAVOK 11/10 Q1021 EDMA 201720Z 08003KT CAVOK 13/09 Q1021 EDMA 201650Z 06003KT CAVOK 13/09 Q1021 EDMA 201620Z 03005KT 360V070 CAVOK 13/09 Q1020 EDMA 201550Z 07005KT CAVOK 14/09 Q1020 EDMA 201520Z 06004KT CAVOK 14/09 Q1020 EDMA 201450Z 06004KT 030V100 CAVOK 14/09 Q1020 EDMA 201420Z 02005KT 350V050 CAVOK 14/09 Q1020 EDMA 201350Z 02007KT CAVOK 14/10 Q1020 EDMA 201320Z 03005KT 360V060 CAVOK 14/09 Q1019 EDMA 201250Z 02005KT 350V050 CAVOK 14/09 Q1019 EDMA 201220Z 05006KT 020V080 9999 OVC048 14/10 Q1019 EDMA 201150Z 04005KT 9999 OVC048 14/09 Q1019 EDMA 201120Z 03005KT 350V060 9999 OVC049 14/09 Q1019 EDMA 201050Z 03004KT 350V070 9999 OVC049 13/09 Q1019 EDMA 201020Z 02003KT 350V050 9999 OVC046 13/10 Q1019 EDMA 200950Z 04005KT 9999 OVC042 13/10 Q1019 EDMA 200920Z 03003KT 010V080 9999 OVC041 13/10 Q1019 EDMA 200850Z 12003KT 090V170 9999 OVC040 13/09 Q1019 EDMA 200820Z 11003KT 080V150 9999 OVC041 12/09 Q1019 EDMA 200750Z VRB02KT 9999 FEW023 SCT042 OVC048 12/09 Q1019 EDMA 200720Z 11003KT 9999 FEW023 12/09 Q1018 EDMA 200650Z 11003KT 080V140 9999 FEW022 12/09 Q1018 EDMA 200620Z 07002KT 9999 FEW022 11/09 Q1018 EDMA 200550Z 11002KT 9999 FEW018 11/09 Q1018 EDMA 200520Z 12002KT 9999 SCT018 BKN041 11/09 Q1018 EDMA 200450Z 06002KT 7000 BKN016 OVC037 11/09 Q1017 EDMA 200420Z AUTO 06002KT 9999 OVC015/// 11/09 Q1017 EDMA 200350Z AUTO 05002KT 9999 OVC017/// 11/09 Q1017 EDMA 200320Z AUTO 08003KT 9999 OVC016/// 11/09 Q1017 EDMA 200250Z AUTO 00000KT 9999 OVC016/// 11/10 Q1017 EDMA 200220Z AUTO VRB02KT 9999 OVC016/// 11/10 Q1017 EDMA 200150Z AUTO 36003KT 9999 SCT016/// OVC019/// 11/10 Q1017 EDMA 200120Z AUTO VRB02KT 9999 SCT017/// OVC049/// 11/10 Q1017 EDMA 200050Z AUTO 00000KT 9999 SCT022/// OVC050/// 11/09 Q1017 EDMA 200020Z AUTO VRB02KT 9999 FEW022/// OVC051/// 11/09 Q1017 EDMA 192350Z AUTO VRB02KT 9999 BKN034/// OVC052/// 11/09 Q1016 EDMA 192320Z AUTO 05004KT 9999 OVC034/// 12/09 Q1016 EDMA 192250Z AUTO 06003KT 9999 SCT034/// BKN044/// OVC053/// 12/09 Q1016 EDMA 192220Z AUTO 05004KT 9999 BKN033/// OVC055/// 12/09 Q1016 EDMA 192150Z AUTO 05004KT 9999 OVC033/// 12/10 Q1016 EDMA 192120Z AUTO 03004KT 9999 FEW019/// OVC033/// 12/10 Q1016 EDMA 192050Z AUTO 03003KT 350V070 9999 FEW023/// BKN032/// OVC048/// 12/10 Q1016 EDMA 192020Z AUTO 07003KT 9999 BKN030/// BKN036/// OVC047/// 13/10 Q1016 EDMA 191950Z AUTO 10003KT 060V130 9999 FEW032/// BKN036/// 13/10 Q1015 EDMA 191920Z AUTO 06003KT 9999 BKN036/// BKN056/// 13/11 Q1015 EDMA 191850Z 05005KT 9999 SCT036 BKN043 14/11 Q1015 EDMA 191820Z 03006KT 9999 FEW037 13/11 Q1014 EDMA 191750Z 02007KT 9999 FEW038 SCT043 14/11 Q1014 EDMA 191720Z 03004KT 9999 15/11 Q1014 EDMA 191650Z 03004KT CAVOK 16/11 Q1013 EDMA 191620Z 04005KT CAVOK 16/11 Q1013 EDMA 191550Z 04005KT 9999 FEW036 BKN043 16/11 Q1013 EDMA 191520Z 03006KT CAVOK 17/11 Q1013 EDMA 191450Z 02005KT 340V040 CAVOK 17/11 Q1013 EDMA 191420Z 03004KT CAVOK 17/11 Q1013 EDMA 191350Z 03005KT 350V060 9999 SCT033 17/11 Q1013

METAR Messwerte

Zurück zur Übersicht

Ort
m ü. NN
Zeit Temperatur Taupunkt Rel.
Luftfeuchte
Luftdruck:
Altimeter
NN
Station
Wind in Beaufort
(Knoten)
Sichtweite
(Meter)
Wolken
(Meter über Grund)
Wettererscheinung
Augsburg
463
Di 21.09. 03:2099100 %1023
1024
968
O 2 (3)>= 10000Bedeckt (1500) 
Augsburg
463
Di 21.09. 02:5099100 %1024
1025
969
SO 1 (1)>= 10000Bedeckt (1500)
Wolkig (1200)
 
Augsburg
463
Di 21.09. 02:209893 %1024
1025
969
Uml 1 (1)>= 10000Stark bewölkt (1600)
Stark bewölkt (1400)
 
Augsburg
463
Di 21.09. 01:5010993 %1023
1024
968
NNO 2 (3)>= 10000Bedeckt (1600)
Leicht bewölkt (1100)
 
Augsburg
463
Di 21.09. 01:2010993 %1023
1024
968
N 1 (2)>= 10000Bedeckt (1600)
Leicht bewölkt (1000)
 
Augsburg
463
Di 21.09. 00:5011882 %1023
1024
968
N 2 (3)
NW - OSO
>= 10000Bedeckt (1600)
Leicht bewölkt (1000)
 
Augsburg
463
Di 21.09. 00:2011987 %1023
1024
968
OSO 2 (4)
O - SSO
>= 10000Bedeckt (1500) 
Augsburg
463
Mo 20.09. 23:5010993 %1023
1024
968
OSO 1 (2)>= 10000Bedeckt (1700)
Leicht bewölkt (980)
 
Augsburg
463
Mo 20.09. 23:2099100 %1023
1024
968
NO 1 (2)>= 10000Bedeckt (1800)
Wolkig (980)
 
Augsburg
463
Mo 20.09. 22:5099100 %1023
1024
968
N 1 (2)>= 10000Stark bewölkt (1800) 
Augsburg
463
Mo 20.09. 22:2010993 %1022
1023
967
NO 1 (2)>= 10000Stark bewölkt (1800) 
Augsburg
463
Mo 20.09. 21:5010993 %1022
1023
967
O 1 (2)>= 10000Bedeckt (1800) 
Augsburg
463
Mo 20.09. 21:2010993 %1022
1023
967
O 1 (2)>= 10000Bedeckt (1800) 
Augsburg
463
Mo 20.09. 20:5010993 %1022
1023
967
Uml 1 (1)>= 10000Nicht signifikant 
Augsburg
463
Mo 20.09. 20:2010993 %1021
1022
966
Uml 1 (2)>= 10000Nicht signifikant 
Augsburg
463
Mo 20.09. 19:50111094 %1021
1022
966
ONO 1 (2)>= 10000Nicht signifikant 
Augsburg
463
Mo 20.09. 19:2013977 %1021
1021
966
O 2 (3)>= 10000Nicht signifikant 
Augsburg
463
Mo 20.09. 18:5013977 %1021
1021
966
ONO 2 (3)>= 10000Nicht signifikant 
Augsburg
463
Mo 20.09. 18:2013977 %1020
1020
965
NNO 2 (5)
N - ONO
>= 10000Nicht signifikant 
Augsburg
463
Mo 20.09. 17:5014972 %1020
1020
965
ONO 2 (5)>= 10000Nicht signifikant 
Augsburg
463
Mo 20.09. 17:2014972 %1020
1020
965
ONO 2 (4)>= 10000Nicht signifikant 
Augsburg
463
Mo 20.09. 16:5014972 %1020
1020
965
ONO 2 (4)
NNO - O
>= 10000Nicht signifikant 
Augsburg
463
Mo 20.09. 16:2014972 %1020
1020
965
NNO 2 (5)
N - NO
>= 10000Nicht signifikant 
Augsburg
463
Mo 20.09. 15:50141077 %1020
1020
965
NNO 3 (7)>= 10000Nicht signifikant 
Augsburg
463
Mo 20.09. 15:2014972 %1019
1019
964
NNO 2 (5)
N - ONO
>= 10000Nicht signifikant 
Augsburg
463
Mo 20.09. 14:5014972 %1019
1019
964
NNO 2 (5)
N - NO
>= 10000Nicht signifikant 
Augsburg
463
Mo 20.09. 14:20141077 %1019
1019
964
NO 2 (6)
NNO - O
>= 10000Bedeckt (1500) 
Augsburg
463
Mo 20.09. 13:5014972 %1019
1019
964
NO 2 (5)>= 10000Bedeckt (1500) 
Augsburg
463
Mo 20.09. 13:2014972 %1019
1019
964
NNO 2 (5)
N - ONO
>= 10000Bedeckt (1500) 
Augsburg
463
Mo 20.09. 12:5013977 %1019
1019
964
NNO 2 (4)
N - ONO
>= 10000Bedeckt (1500) 
Augsburg
463
Mo 20.09. 12:20131082 %1019
1019
964
NNO 2 (3)
N - NO
>= 10000Bedeckt (1400) 
Augsburg
463
Mo 20.09. 11:50131082 %1019
1019
964
NO 2 (5)>= 10000Bedeckt (1300) 
Augsburg
463
Mo 20.09. 11:20131082 %1019
1019
964
NNO 2 (3)
N - O
>= 10000Bedeckt (1200) 
Augsburg
463
Mo 20.09. 10:5013977 %1019
1019
964
OSO 2 (3)
O - S
>= 10000Bedeckt (1200) 
Augsburg
463
Mo 20.09. 10:2012982 %1019
1020
964
OSO 2 (3)
O - SSO
>= 10000Bedeckt (1200) 
Augsburg
463
Mo 20.09. 09:5012982 %1019
1020
964
Uml 1 (2)>= 10000Bedeckt (1500)
Wolkig (1300)
Leicht bewölkt (700)
 
Augsburg
463
Mo 20.09. 09:2012982 %1018
1019
963
OSO 2 (3)>= 10000Leicht bewölkt (700) 
Augsburg
463
Mo 20.09. 08:5012982 %1018
1019
963
OSO 2 (3)
O - SO
>= 10000Leicht bewölkt (670) 
Augsburg
463
Mo 20.09. 08:2011987 %1018
1019
963
ONO 1 (2)>= 10000Leicht bewölkt (670) 
Augsburg
463
Mo 20.09. 07:5011987 %1018
1019
963
OSO 1 (2)>= 10000Leicht bewölkt (550) 
Augsburg
463
Mo 20.09. 07:2011987 %1018
1019
963
OSO 1 (2)>= 10000Stark bewölkt (1200)
Wolkig (550)
 
Augsburg
463
Mo 20.09. 06:5011987 %1017
1018
962
ONO 1 (2)7000Bedeckt (1100)
Stark bewölkt (490)
 
Augsburg
463
Mo 20.09. 06:2011987 %1017
1018
962
ONO 1 (2)>= 10000Bedeckt (460) 
Augsburg
463
Mo 20.09. 05:5011987 %1017
1018
962
NO 1 (2)>= 10000Bedeckt (520) 
Augsburg
463
Mo 20.09. 05:2011987 %1017
1018
962
O 2 (3)>= 10000Bedeckt (490) 
Augsburg
463
Mo 20.09. 04:50111094 %1017
1018
962
Windstill>= 10000Bedeckt (490) 
Augsburg
463
Mo 20.09. 04:20111094 %1017
1018
962
Uml 1 (2)>= 10000Bedeckt (490) 
Augsburg
463
Mo 20.09. 03:50111094 %1017
1018
962
N 2 (3)>= 10000Bedeckt (580)
Wolkig (490)
 
Augsburg
463
Mo 20.09. 03:20111094 %1017
1018
962
Uml 1 (2)>= 10000Bedeckt (1500)
Wolkig (520)
 
Augsburg
463
Mo 20.09. 02:5011987 %1017
1018
962
Windstill>= 10000Bedeckt (1500)
Wolkig (670)
 
Augsburg
463
Mo 20.09. 02:2011987 %1017
1018
962
Uml 1 (2)>= 10000Bedeckt (1600)
Leicht bewölkt (670)
 
Augsburg
463
Mo 20.09. 01:5011987 %1016
1017
961
Uml 1 (2)>= 10000Bedeckt (1600)
Stark bewölkt (1000)
 
Augsburg
463
Mo 20.09. 01:2012982 %1016
1017
961
NO 2 (4)>= 10000Bedeckt (1000) 
Augsburg
463
Mo 20.09. 00:5012982 %1016
1017
961
ONO 2 (3)>= 10000Bedeckt (1600)
Stark bewölkt (1300)
Wolkig (1000)
 
Augsburg
463
Mo 20.09. 00:2012982 %1016
1017
961
NO 2 (4)>= 10000Bedeckt (1700)
Stark bewölkt (1000)
 
Augsburg
463
So 19.09. 23:50121088 %1016
1017
961
NO 2 (4)>= 10000Bedeckt (1000) 
Augsburg
463
So 19.09. 23:20121088 %1016
1017
961
NNO 2 (4)>= 10000Bedeckt (1000)
Leicht bewölkt (580)
 
Augsburg
463
So 19.09. 22:50121088 %1016
1017
961
NNO 2 (3)
N - ONO
>= 10000Bedeckt (1500)
Stark bewölkt (980)
Leicht bewölkt (700)
 
Augsburg
463
So 19.09. 22:20131082 %1016
1016
961
ONO 2 (3)>= 10000Bedeckt (1400)
Stark bewölkt (1100)
Stark bewölkt (910)
 
Augsburg
463
So 19.09. 21:50131082 %1015
1015
961
O 2 (3)
ONO - SO
>= 10000Stark bewölkt (1100)
Leicht bewölkt (980)
 
Augsburg
463
So 19.09. 21:20131188 %1015
1015
961
ONO 2 (3)>= 10000Stark bewölkt (1700)
Stark bewölkt (1100)
 
Augsburg
463
So 19.09. 20:50141182 %1015
1015
961
NO 2 (5)>= 10000Stark bewölkt (1300)
Wolkig (1100)
 
Augsburg
463
So 19.09. 20:20131188 %1014
1014
960
NNO 2 (6)>= 10000Leicht bewölkt (1100) 
Augsburg
463
So 19.09. 19:50141182 %1014
1014
960
NNO 3 (7)>= 10000Wolkig (1300)
Leicht bewölkt (1200)
 
Augsburg
463
So 19.09. 19:20151177 %1014
1014
960
NNO 2 (4)>= 10000  
Augsburg
463
So 19.09. 18:50161172 %1013
1013
959
NNO 2 (4)>= 10000Nicht signifikant 
Augsburg
463
So 19.09. 18:20161172 %1013
1013
959
NO 2 (5)>= 10000Nicht signifikant 
Augsburg
463
So 19.09. 17:50161172 %1013
1013
959
NO 2 (5)>= 10000Stark bewölkt (1300)
Leicht bewölkt (1100)
 
Augsburg
463
So 19.09. 17:20171168 %1013
1013
959
NNO 2 (6)>= 10000Nicht signifikant 
Augsburg
463
So 19.09. 16:50171168 %1013
1013
959
NNO 2 (5)
NNW - NO
>= 10000Nicht signifikant 
Augsburg
463
So 19.09. 16:20171168 %1013
1013
959
NNO 2 (4)>= 10000Nicht signifikant 
Augsburg
463
So 19.09. 15:50171168 %1013
1013
959
NNO 2 (5)
N - ONO
>= 10000Wolkig (1000) 

Altimeter: Einstellung am Altimeter (Höhenmesser), die Höhe 0 muss auf diesen Luftdruckwert zeigen, damit das Gerät die Stationshöhe richtig anzeigt.

NN: Luftdruck reduziert auf "Normal Null", auf Meereshöhe, dieser von der Temperatur abhängige Wert wird bisweilen unkorrekt einfach als "Luftdruck" bezeichnet. Eigentlich nur eine fiktive Größe, die es erlaubt, Stationen auf unterschiedlichen Höhen miteinander zu vergleichen.

Station: Realer Luftdruck an der Station.